Darstellungsparameter: Aktuell verwendete Einstellungen:
Skalierung der Graphiken ... ?
xyx+y,   Skalierungsfaktor:      Skalierung: Modus: x, Faktor: 1
Darstellungszeitraum ... ?
Vom - - bis: - -   Zeitraum: 28.08.2016 - 28.08.2016
Min/Max/Avg-Anzeige ... ?
Zeige MMA aktuell
Zeige MMA Monat
Zeige MMA alles
Zeige --A aktuell
Zeige --A Monat
Zeige --A alles
Keine MMA-Anzeige
MMA:
Keine MMA-Graphiken
MMA-Basis: 28.08.2016 - 28.08.2016
Quicknavigation für Darstellung... ?
Tage:      1T, 2T, 3T, 5T -1T -2T -3T -5T +1T +2T +3T +5T
Wochen: 1W, 2W, 3W -1W -2W -3W +1W +2W +3W
Monate: 1M, 3M, 6M -1M -3M -6M +1M +3M +6M
Jahre:    1J, 3J, 5J, 10J -1J -3J -5J -10J +1J +3J +5J +10J
Nutze für die Darstellung ... ?
Originaldaten oder Mittelwerte auf ...
Stundenbasis Tagesbasis Wochenbasis
Monatsbasis Jahresbasis      Datenbasis: Original-Daten
Darstellen als:
Statistik (Auto) Statistik J:M      Darstellung:
Zur Graphik,    zurück zur Übersicht aller Sensoren.
 
Tabellarische Datenbersicht: ?
 
Sensor: Nr:Datum:Temp:Feuchte:Taupunkt:
Aussen-T/F 1 28-08-2016 00:00:00 21 C 84 % 18.19 C
2 28-08-2016 00:05:00 20.9 C 84 % 18.09 C
3 28-08-2016 00:10:00 20.9 C 83 % 17.9 C
4 28-08-2016 00:15:00 21 C 83 % 18 C
5 28-08-2016 00:20:00 21.1 C 83 % 18.1 C
6 28-08-2016 00:25:00 21.2 C 83 % 18.2 C
7 28-08-2016 00:30:00 21.2 C 83 % 18.2 C
8 28-08-2016 00:35:00 21.2 C 83 % 18.2 C
9 28-08-2016 00:40:00 21.2 C 82 % 18 C
10 28-08-2016 00:45:00 21.2 C 82 % 18 C
11 28-08-2016 00:50:00 21.2 C 82 % 18 C
12 28-08-2016 00:55:00 21.1 C 82 % 17.91 C
13 28-08-2016 01:00:00 20.9 C 83 % 17.9 C
14 28-08-2016 01:05:00 20.8 C 83 % 17.81 C
15 28-08-2016 01:10:00 20.7 C 84 % 17.9 C
16 28-08-2016 01:15:00 20.7 C 85 % 18.09 C
17 28-08-2016 01:20:00 20.6 C 84 % 17.8 C
18 28-08-2016 01:25:00 20.5 C 84 % 17.7 C
19 28-08-2016 01:30:00 20.4 C 85 % 17.79 C
20 28-08-2016 01:35:00 20.4 C 85 % 17.79 C
21 28-08-2016 01:40:00 20.4 C 85 % 17.79 C
22 28-08-2016 01:45:00 20.3 C 85 % 17.7 C
23 28-08-2016 01:50:00 20.3 C 85 % 17.7 C
24 28-08-2016 01:55:00 20.2 C 85 % 17.6 C
25 28-08-2016 02:00:00 20.1 C 86 % 17.68 C
Sensor: Nr:Datum:Temp:Feuchte:Taupunkt:
Aussen-T/F 26 28-08-2016 02:05:00 20 C 86 % 17.59 C
27 28-08-2016 02:10:00 19.9 C 86 % 17.49 C
28 28-08-2016 02:15:00 19.8 C 86 % 17.39 C
29 28-08-2016 02:20:00 19.7 C 86 % 17.29 C
30 28-08-2016 02:25:00 19.7 C 87 % 17.47 C
31 28-08-2016 02:30:00 19.7 C 87 % 17.47 C
32 28-08-2016 02:35:00 19.6 C 87 % 17.38 C
33 28-08-2016 02:40:00 19.6 C 86 % 17.19 C
34 28-08-2016 02:45:00 19.6 C 86 % 17.19 C
35 28-08-2016 02:50:00 19.5 C 87 % 17.28 C
36 28-08-2016 02:55:00 19.4 C 87 % 17.18 C
37 28-08-2016 03:00:00 19.4 C 87 % 17.18 C
38 28-08-2016 03:05:00 19.4 C 87 % 17.18 C
39 28-08-2016 03:10:00 19.4 C 87 % 17.18 C
40 28-08-2016 03:15:00 19.5 C 88 % 17.46 C
41 28-08-2016 03:20:00 19.6 C 88 % 17.56 C
42 28-08-2016 03:25:00 19.6 C 88 % 17.56 C
43 28-08-2016 03:30:00 19.6 C 88 % 17.56 C
44 28-08-2016 03:35:00 19.6 C 87 % 17.38 C
45 28-08-2016 03:40:00 19.6 C 87 % 17.38 C
46 28-08-2016 03:45:00 19.4 C 87 % 17.18 C
47 28-08-2016 03:50:00 19.4 C 87 % 17.18 C
48 28-08-2016 03:55:00 19.4 C 87 % 17.18 C
49 28-08-2016 04:00:00 19.3 C 87 % 17.08 C
50 28-08-2016 04:05:00 19.3 C 87 % 17.08 C
Sensor: Nr:Datum:Temp:Feuchte:Taupunkt:
Aussen-T/F 51 28-08-2016 04:10:00 19.2 C 87 % 16.98 C
52 28-08-2016 04:15:00 19.2 C 87 % 16.98 C
53 28-08-2016 04:20:00 19.1 C 87 % 16.89 C
54 28-08-2016 04:25:00 19 C 88 % 16.97 C
55 28-08-2016 04:30:00 18.9 C 88 % 16.87 C
56 28-08-2016 04:35:00 18.8 C 88 % 16.77 C
57 28-08-2016 04:40:00 18.7 C 88 % 16.67 C
58 28-08-2016 04:45:00 18.6 C 88 % 16.57 C
59 28-08-2016 04:50:00 18.5 C 89 % 16.65 C
60 28-08-2016 04:55:00 18.6 C 89 % 16.75 C
61 28-08-2016 05:00:00 18.6 C 89 % 16.75 C
62 28-08-2016 05:05:00 18.6 C 89 % 16.75 C
63 28-08-2016 05:10:00 18.8 C 89 % 16.95 C
64 28-08-2016 05:15:00 18.9 C 89 % 17.05 C
65 28-08-2016 05:20:00 19 C 89 % 17.15 C
66 28-08-2016 05:25:00 19.1 C 88 % 17.07 C
67 28-08-2016 05:30:00 19.1 C 87 % 16.89 C
68 28-08-2016 05:35:00 19 C 88 % 16.97 C
69 28-08-2016 05:40:00 18.9 C 88 % 16.87 C
70 28-08-2016 05:45:00 18.8 C 88 % 16.77 C
71 28-08-2016 05:50:00 18.7 C 88 % 16.67 C
72 28-08-2016 05:55:00 18.6 C 89 % 16.75 C
73 28-08-2016 06:00:00 18.6 C 89 % 16.75 C
74 28-08-2016 06:05:00 18.4 C 89 % 16.55 C
75 28-08-2016 06:10:00 18.4 C 90 % 16.73 C
Sensor: Nr:Datum:Temp:Feuchte:Taupunkt:
Aussen-T/F 76 28-08-2016 06:15:00 18.4 C 90 % 16.73 C
77 28-08-2016 06:20:00 18.3 C 90 % 16.63 C
78 28-08-2016 06:25:00 18.3 C 90 % 16.63 C
79 28-08-2016 06:30:00 18.2 C 90 % 16.53 C
80 28-08-2016 06:35:00 18.1 C 90 % 16.43 C
81 28-08-2016 06:40:00 18.1 C 90 % 16.43 C
82 28-08-2016 06:45:00 18.1 C 91 % 16.61 C
83 28-08-2016 06:50:00 18.1 C 91 % 16.61 C
84 28-08-2016 06:55:00 18.1 C 90 % 16.43 C
85 28-08-2016 07:00:00 18.1 C 90 % 16.43 C
86 28-08-2016 07:05:00 18 C 90 % 16.34 C
87 28-08-2016 07:10:00 18 C 91 % 16.51 C
88 28-08-2016 07:15:00 18 C 91 % 16.51 C
89 28-08-2016 07:20:00 17.9 C 91 % 16.41 C
90 28-08-2016 07:25:00 17.9 C 91 % 16.41 C
91 28-08-2016 07:30:00 17.9 C 91 % 16.41 C
92 28-08-2016 07:35:00 17.9 C 91 % 16.41 C
93 28-08-2016 07:40:00 17.9 C 92 % 16.58 C
94 28-08-2016 07:45:00 17.9 C 92 % 16.58 C
95 28-08-2016 07:50:00 17.9 C 92 % 16.58 C
96 28-08-2016 07:55:00 17.9 C 92 % 16.58 C
97 28-08-2016 08:00:00 17.9 C 92 % 16.58 C
98 28-08-2016 08:05:00 17.9 C 92 % 16.58 C
99 28-08-2016 08:10:00 18 C 92 % 16.68 C
100 28-08-2016 08:15:00 18.1 C 92 % 16.78 C
Sensor: Nr:Datum:Temp:Feuchte:Taupunkt:
Aussen-T/F 101 28-08-2016 08:20:00 18.1 C 93 % 16.95 C
102 28-08-2016 08:25:00 18.2 C 93 % 17.05 C
103 28-08-2016 08:30:00 18.2 C 92 % 16.88 C
104 28-08-2016 08:35:00 18.3 C 92 % 16.98 C
105 28-08-2016 08:40:00 18.3 C 92 % 16.98 C
106 28-08-2016 08:45:00 18.3 C 92 % 16.98 C
107 28-08-2016 08:50:00 18.4 C 92 % 17.08 C
108 28-08-2016 08:55:00 18.4 C 92 % 17.08 C
109 28-08-2016 09:00:00 18.6 C 92 % 17.27 C
110 28-08-2016 09:05:00 18.7 C 92 % 17.37 C
111 28-08-2016 09:10:00 18.7 C 92 % 17.37 C
112 28-08-2016 09:15:00 18.8 C 92 % 17.47 C
113 28-08-2016 09:20:00 18.9 C 93 % 17.74 C
114 28-08-2016 09:25:00 19.1 C 92 % 17.77 C
115 28-08-2016 09:30:00 19.2 C 92 % 17.87 C
116 28-08-2016 09:35:00 19.3 C 92 % 17.97 C
117 28-08-2016 09:40:00 19.4 C 92 % 18.07 C
118 28-08-2016 09:45:00 19.5 C 92 % 18.17 C
119 28-08-2016 09:50:00 19.7 C 92 % 18.36 C
120 28-08-2016 09:55:00 19.8 C 91 % 18.29 C
121 28-08-2016 10:00:00 19.9 C 91 % 18.39 C
122 28-08-2016 10:05:00 20.1 C 91 % 18.58 C
123 28-08-2016 10:10:00 20.2 C 91 % 18.68 C
124 28-08-2016 10:15:00 20.3 C 91 % 18.78 C
125 28-08-2016 10:20:00 20.5 C 90 % 18.8 C
Sensor: Nr:Datum:Temp:Feuchte:Taupunkt:
Aussen-T/F 126 28-08-2016 10:25:00 20.7 C 90 % 19 C
127 28-08-2016 10:30:00 21 C 90 % 19.3 C
128 28-08-2016 10:35:00 21.3 C 90 % 19.59 C
129 28-08-2016 10:40:00 21.7 C 89 % 19.81 C
130 28-08-2016 10:45:00 22.1 C 88 % 20.02 C
131 28-08-2016 10:50:00 22.5 C 86 % 20.04 C
132 28-08-2016 10:55:00 22.9 C 85 % 20.24 C
133 28-08-2016 11:00:00 23.2 C 84 % 20.34 C
134 28-08-2016 11:05:00 23.4 C 83 % 20.35 C
135 28-08-2016 11:10:00 23.7 C 82 % 20.44 C
136 28-08-2016 11:15:00 23.8 C 83 % 20.74 C
137 28-08-2016 11:20:00 24.1 C 81 % 20.63 C
138 28-08-2016 11:25:00 24.3 C 79 % 20.42 C
139 28-08-2016 11:30:00 24.7 C 79 % 20.81 C
140 28-08-2016 11:35:00 24.9 C 78 % 20.8 C
141 28-08-2016 11:40:00 25.1 C 78 % 20.99 C
142 28-08-2016 11:45:00 25.3 C 76 % 20.76 C
143 28-08-2016 11:50:00 25.5 C 73 % 20.3 C
144 28-08-2016 11:55:00 25.8 C 76 % 21.24 C
145 28-08-2016 12:00:00 25.9 C 75 % 21.13 C
146 28-08-2016 12:05:00 26.1 C 72 % 20.65 C
147 28-08-2016 12:10:00 26.2 C 72 % 20.75 C
148 28-08-2016 12:15:00 26.4 C 73 % 21.17 C
149 28-08-2016 12:20:00 26.7 C 72 % 21.23 C
150 28-08-2016 12:25:00 26.8 C 68 % 20.4 C
Sensor: Nr:Datum:Temp:Feuchte:Taupunkt:
Aussen-T/F 151 28-08-2016 12:30:00 27.4 C 63 % 19.73 C
152 28-08-2016 12:35:00 27.9 C 59 % 19.14 C
153 28-08-2016 12:40:00 28.4 C 58 % 19.34 C
154 28-08-2016 12:45:00 28.8 C 56 % 19.14 C
155 28-08-2016 12:50:00 29.2 C 54 % 18.93 C
156 28-08-2016 12:55:00 29.6 C 53 % 19 C
157 28-08-2016 13:00:00 29.7 C 54 % 19.39 C
158 28-08-2016 13:05:00 29.7 C 53 % 19.09 C
159 28-08-2016 13:10:00 29.8 C 51 % 18.57 C
160 28-08-2016 13:15:00 29.9 C 50 % 18.35 C
161 28-08-2016 13:20:00 30.1 C 51 % 18.85 C
162 28-08-2016 13:25:00 30.1 C 50 % 18.53 C
163 28-08-2016 13:30:00 30.1 C 53 % 19.46 C
164 28-08-2016 13:35:00 30.1 C 52 % 19.16 C
165 28-08-2016 13:40:00 29.9 C 50 % 18.35 C
166 28-08-2016 13:45:00 29.9 C 51 % 18.66 C
167 28-08-2016 13:50:00 29.9 C 52 % 18.97 C
168 28-08-2016 13:55:00 30.1 C 52 % 19.16 C
169 28-08-2016 14:00:00 30.3 C 51 % 19.03 C
170 28-08-2016 14:05:00 30.3 C 50 % 18.71 C
171 28-08-2016 14:10:00 30.4 C 50 % 18.8 C
172 28-08-2016 14:15:00 30.6 C 48 % 18.33 C
173 28-08-2016 14:20:00 30.9 C 48 % 18.61 C
174 28-08-2016 14:25:00 31.1 C 46 % 18.11 C
175 28-08-2016 14:30:00 31.2 C 46 % 18.2 C
Sensor: Nr:Datum:Temp:Feuchte:Taupunkt:
Aussen-T/F 176 28-08-2016 14:35:00 31.3 C 45 % 17.94 C
177 28-08-2016 14:40:00 31.5 C 44 % 17.76 C
178 28-08-2016 14:45:00 31.7 C 44 % 17.94 C
179 28-08-2016 14:50:00 31.9 C 44 % 18.12 C
180 28-08-2016 14:55:00 32.1 C 43 % 17.94 C
181 28-08-2016 15:00:00 31.9 C 44 % 18.12 C
182 28-08-2016 15:05:00 31.9 C 43 % 17.76 C
183 28-08-2016 15:10:00 31.8 C 44 % 18.03 C
184 28-08-2016 15:15:00 31.9 C 47 % 19.18 C
185 28-08-2016 15:20:00 31.9 C 45 % 18.48 C
186 28-08-2016 15:25:00 31.7 C 46 % 18.65 C
187 28-08-2016 15:30:00 31.6 C 46 % 18.56 C
188 28-08-2016 15:35:00 31.7 C 46 % 18.65 C
189 28-08-2016 15:40:00 31.7 C 46 % 18.65 C
190 28-08-2016 15:45:00 31.4 C 49 % 19.39 C
191 28-08-2016 15:50:00 30.8 C 48 % 18.52 C
192 28-08-2016 15:55:00 30.4 C 49 % 18.48 C
193 28-08-2016 16:00:00 30.1 C 47 % 17.54 C
194 28-08-2016 16:05:00 30.3 C 48 % 18.06 C
195 28-08-2016 16:10:00 30.3 C 47 % 17.73 C
196 28-08-2016 16:15:00 30.2 C 48 % 17.97 C
197 28-08-2016 16:20:00 29.9 C 49 % 18.02 C
198 28-08-2016 16:25:00 29.8 C 47 % 17.27 C
199 28-08-2016 16:30:00 29.5 C 47 % 17 C
200 28-08-2016 16:35:00 29.3 C 47 % 16.82 C
Sensor: Nr:Datum:Temp:Feuchte:Taupunkt:
Aussen-T/F 201 28-08-2016 16:40:00 29 C 46 % 16.21 C
202 28-08-2016 16:45:00 28.8 C 47 % 16.36 C
203 28-08-2016 16:50:00 28.6 C 47 % 16.18 C
204 28-08-2016 16:55:00 28.4 C 49 % 16.65 C
205 28-08-2016 17:00:00 28.2 C 48 % 16.15 C
206 28-08-2016 17:05:00 28.1 C 48 % 16.06 C
207 28-08-2016 17:10:00 28.1 C 50 % 16.7 C
208 28-08-2016 17:15:00 28.2 C 49 % 16.47 C
209 28-08-2016 17:20:00 28.6 C 47 % 16.18 C
210 28-08-2016 17:25:00 28.8 C 48 % 16.69 C
211 28-08-2016 17:30:00 28.7 C 46 % 15.94 C
212 28-08-2016 17:35:00 28.6 C 47 % 16.18 C
213 28-08-2016 17:40:00 28.5 C 48 % 16.42 C
214 28-08-2016 17:45:00 28.3 C 48 % 16.24 C
215 28-08-2016 17:50:00 28.1 C 47 % 15.73 C
216 28-08-2016 17:55:00 27.9 C 48 % 15.87 C
217 28-08-2016 18:00:00 27.9 C 44 % 14.52 C
218 28-08-2016 18:05:00 27.8 C 45 % 14.78 C
219 28-08-2016 18:10:00 27.7 C 44 % 14.34 C
220 28-08-2016 18:15:00 27.6 C 43 % 13.9 C
221 28-08-2016 18:20:00 27.6 C 44 % 14.25 C
222 28-08-2016 18:25:00 27.4 C 46 % 14.76 C
223 28-08-2016 18:30:00 27.3 C 49 % 15.65 C
224 28-08-2016 18:35:00 27.2 C 49 % 15.56 C
225 28-08-2016 18:40:00 27.1 C 50 % 15.78 C
Sensor: Nr:Datum:Temp:Feuchte:Taupunkt:
Aussen-T/F 226 28-08-2016 18:45:00 27.1 C 52 % 16.4 C
227 28-08-2016 18:50:00 27.1 C 52 % 16.4 C
228 28-08-2016 18:55:00 27.1 C 54 % 16.99 C
229 28-08-2016 19:00:00 26.8 C 56 % 17.29 C
230 28-08-2016 19:05:00 26.6 C 57 % 17.38 C
231 28-08-2016 19:10:00 26.3 C 57 % 17.1 C
232 28-08-2016 19:15:00 26.2 C 58 % 17.28 C
233 28-08-2016 19:20:00 26.1 C 59 % 17.46 C
234 28-08-2016 19:25:00 26.1 C 59 % 17.46 C
235 28-08-2016 19:30:00 26.2 C 59 % 17.55 C
236 28-08-2016 19:35:00 26.2 C 62 % 18.34 C
237 28-08-2016 19:40:00 26.1 C 61 % 17.99 C
238 28-08-2016 19:45:00 25.9 C 61 % 17.8 C
239 28-08-2016 19:50:00 25.7 C 61 % 17.61 C
240 28-08-2016 19:55:00 25.5 C 62 % 17.68 C
241 28-08-2016 20:00:00 25.3 C 63 % 17.75 C
242 28-08-2016 20:05:00 25.1 C 63 % 17.56 C
243 28-08-2016 20:10:00 24.9 C 64 % 17.62 C
244 28-08-2016 20:15:00 24.7 C 65 % 17.68 C
245 28-08-2016 20:20:00 24.6 C 66 % 17.83 C
246 28-08-2016 20:25:00 24.4 C 66 % 17.64 C
247 28-08-2016 20:30:00 24.3 C 66 % 17.54 C
248 28-08-2016 20:35:00 24.3 C 67 % 17.78 C
249 28-08-2016 20:40:00 24.3 C 67 % 17.78 C
250 28-08-2016 20:45:00 24.2 C 68 % 17.92 C
Sensor: Nr:Datum:Temp:Feuchte:Taupunkt:
Aussen-T/F 251 28-08-2016 20:50:00 24.1 C 68 % 17.82 C
252 28-08-2016 20:55:00 23.9 C 68 % 17.63 C
253 28-08-2016 21:00:00 23.8 C 69 % 17.77 C
254 28-08-2016 21:05:00 23.7 C 69 % 17.67 C
255 28-08-2016 21:10:00 23.6 C 70 % 17.81 C
256 28-08-2016 21:15:00 23.5 C 70 % 17.71 C
257 28-08-2016 21:20:00 23.4 C 68 % 17.16 C
258 28-08-2016 21:25:00 23.6 C 70 % 17.81 C
259 28-08-2016 21:30:00 23.6 C 67 % 17.11 C
260 28-08-2016 21:35:00 23.6 C 69 % 17.58 C
261 28-08-2016 21:40:00 23.4 C 68 % 17.16 C
262 28-08-2016 21:45:00 23.3 C 69 % 17.29 C
263 28-08-2016 21:50:00 23.2 C 67 % 16.73 C
264 28-08-2016 21:55:00 23.3 C 66 % 16.59 C
265 28-08-2016 22:00:00 23.6 C 65 % 16.64 C
266 28-08-2016 22:05:00 23.6 C 65 % 16.64 C
267 28-08-2016 22:10:00 23.7 C 65 % 16.73 C
268 28-08-2016 22:15:00 23.7 C 65 % 16.73 C
269 28-08-2016 22:20:00 23.7 C 64 % 16.49 C
270 28-08-2016 22:25:00 23.7 C 64 % 16.49 C
271 28-08-2016 22:30:00 23.7 C 63 % 16.24 C
272 28-08-2016 22:35:00 23.7 C 64 % 16.49 C
273 28-08-2016 22:40:00 23.7 C 63 % 16.24 C
274 28-08-2016 22:45:00 23.7 C 66 % 16.97 C
275 28-08-2016 22:50:00 23.6 C 64 % 16.39 C
Sensor: Nr:Datum:Temp:Feuchte:Taupunkt:
Aussen-T/F 276 28-08-2016 22:55:00 23.5 C 64 % 16.3 C
277 28-08-2016 23:00:00 23.4 C 65 % 16.45 C
278 28-08-2016 23:05:00 23.4 C 65 % 16.45 C
279 28-08-2016 23:10:00 23.3 C 66 % 16.59 C
280 28-08-2016 23:15:00 23.1 C 66 % 16.4 C
281 28-08-2016 23:20:00 22.9 C 65 % 15.97 C
282 28-08-2016 23:25:00 22.8 C 68 % 16.59 C
283 28-08-2016 23:30:00 22.4 C 69 % 16.43 C
284 28-08-2016 23:35:00 22.1 C 70 % 16.37 C
285 28-08-2016 23:40:00 21.7 C 71 % 16.21 C
286 28-08-2016 23:45:00 21.4 C 71 % 15.93 C
287 28-08-2016 23:50:00 21.3 C 73 % 16.26 C
288 28-08-2016 23:55:00 21.1 C 74 % 16.29 C

Legende:
   Min
   Max


Maximal/Minimal-Werte vom 28.08.2016 - 28.08.2016

Sensor Min Max Avg
Temp
(Aussen-T/F)
17.9 °C
28-08-2016  07:20:00
32.1 °C
28-08-2016  14:55:00
23.47 °C
Feuchte
(Aussen-T/F)
43 %
28-08-2016  14:55:00
93 %
28-08-2016  08:20:00
72.07 %
Taupunkt
(Aussen-T/F)
13.9 C
28-08-2016  18:15:00
21.24 C
28-08-2016  11:55:00
17.52 C

Die Daten stammen von einer Davis Vantage Pro 2 Wetter-Station und werden unter Linux mit der Software wview2wettercgi und aufbereitet. Alle Angaben erfolgen ohne Gewähr für ihre Vollständigkeit oder Richtigkeit.
Kontakt: Rainer Krienke krienke@uni-koblenz.de . Meine Webseiten an der Uni Koblenz oder privat.
Version: $Revision: 0.78 $